< Cyclone 192201 1922 Season Cyclone 192203 >
Cyclone 192202 (unnamed)
General InformationTrack Information on Google Maps || ResourceGoogle EarthGE AnimationAtom FeedGeoJSON
Detalied Best Track (Time Zone = UTC)
Year Month Day Hour Lat. Long. Pressure (hPa) Wind (kt) Class Image Chart
1922 2 6 23 -19.7 155.7 995 0 0 -- --
1922 2 7 23 -19.9 155.9 995 0 0 -- --
1922 2 8 23 -20.5 156.4 995 0 0 -- --
1922 2 9 23 -20.9 156.6 995 0 0 -- --
1922 2 10 23 -21.2 156.7 995 0 0 -- --
1922 2 11 23 -21.5 156.9 995 0 0 -- --
1922 2 12 23 -22.1 157.0 995 0 0 -- --
1922 2 13 08 -23.2 157.7 995 0 0 -- --
1922 2 13 23 -24.7 159.3 995 0 0 -- --
1922 2 14 16 -27.2 161.3 995 0 0 -- --
1922 2 14 23 -27.5 162.9 995 0 0 -- --
1922 2 15 11 -27.2 163.6 995 0 0 -- --
1922 2 15 23 -26.6 163.8 995 0 0 -- --
1922 2 16 10 -25.7 163.4 995 0 0 -- --
1922 2 16 23 -25.0 162.4 995 0 0 -- --
1922 2 17 11 -24.1 159.8 995 0 0 -- --
1922 2 17 23 -24.0 157.0 995 0 0 -- --
1922 2 18 23 -24.1 152.8 995 0 0 -- --
1922 2 19 11 -23.4 152.0 995 0 0 -- --
1922 2 19 23 -22.4 152.4 995 0 0 -- --
1922 2 20 08 -20.9 154.8 995 0 0 -- --
1922 2 20 20 -19.5 158.4 995 0 0 -- --
1922 2 20 23 -19.5 159.4 995 0 0 -- --
1922 2 21 09 -20.7 161.1 995 0 0 -- --
1922 2 21 23 -22.9 162.8 995 0 0 -- --
< Cyclone 192201 1922 Season Cyclone 192203 >

Help